sensor_id;sensor_type;location;lat;lon;timestamp;pressure;altitude;pressure_sealevel;temperature;humidity
69411;BME280;56604;48.652;9.194;2023-04-21T00:01:34;95873.16;;;4.57;99.72
69411;BME280;56604;48.652;9.194;2023-04-21T00:03:59;95878.38;;;4.57;99.88
69411;BME280;56604;48.652;9.194;2023-04-21T00:06:25;95875.56;;;4.59;99.48
69411;BME280;56604;48.652;9.194;2023-04-21T00:08:51;95879.16;;;4.58;99.39
69411;BME280;56604;48.652;9.194;2023-04-21T00:11:17;95872.38;;;4.57;98.78
69411;BME280;56604;48.652;9.194;2023-04-21T00:13:42;95873.59;;;4.54;99.22
69411;BME280;56604;48.652;9.194;2023-04-21T00:16:08;95873.97;;;4.58;99.18
69411;BME280;56604;48.652;9.194;2023-04-21T00:18:33;95869.34;;;4.60;97.93
69411;BME280;56604;48.652;9.194;2023-04-21T00:20:58;95869.13;;;4.61;97.83
69411;BME280;56604;48.652;9.194;2023-04-21T00:23:24;95864.72;;;4.62;98.70
69411;BME280;56604;48.652;9.194;2023-04-21T00:25:49;95866.28;;;4.63;98.22
69411;BME280;56604;48.652;9.194;2023-04-21T00:28:14;95871.06;;;4.66;97.97
69411;BME280;56604;48.652;9.194;2023-04-21T00:30:40;95861.22;;;4.68;97.92
69411;BME280;56604;48.652;9.194;2023-04-21T00:33:06;95869.03;;;4.68;97.66
69411;BME280;56604;48.652;9.194;2023-04-21T00:35:31;95855.44;;;4.66;97.08
69411;BME280;56604;48.652;9.194;2023-04-21T00:37:56;95854.53;;;4.72;98.12
69411;BME280;56604;48.652;9.194;2023-04-21T00:40:22;95855.69;;;4.76;97.64
69411;BME280;56604;48.652;9.194;2023-04-21T00:42:47;95857.59;;;4.69;97.86
69411;BME280;56604;48.652;9.194;2023-04-21T00:45:12;95849.09;;;4.62;97.05
69411;BME280;56604;48.652;9.194;2023-04-21T00:47:39;95853.13;;;4.58;97.76
69411;BME280;56604;48.652;9.194;2023-04-21T00:50:05;95849.59;;;4.52;98.23
69411;BME280;56604;48.652;9.194;2023-04-21T00:52:30;95851.28;;;4.46;99.06
69411;BME280;56604;48.652;9.194;2023-04-21T00:54:56;95845.63;;;4.49;99.89
69411;BME280;56604;48.652;9.194;2023-04-21T00:57:21;95844.03;;;4.48;100.00
69411;BME280;56604;48.652;9.194;2023-04-21T00:59:47;95841.25;;;4.50;99.83
69411;BME280;56604;48.652;9.194;2023-04-21T01:02:15;95837.81;;;4.49;99.75
69411;BME280;56604;48.652;9.194;2023-04-21T01:04:41;95836.81;;;4.50;99.27
69411;BME280;56604;48.652;9.194;2023-04-21T01:07:07;95830.34;;;4.41;99.20
69411;BME280;56604;48.652;9.194;2023-04-21T01:09:34;95825.69;;;4.43;98.99
69411;BME280;56604;48.652;9.194;2023-04-21T01:12:03;95826.13;;;4.40;99.01
69411;BME280;56604;48.652;9.194;2023-04-21T01:14:29;95822.94;;;4.38;99.46
69411;BME280;56604;48.652;9.194;2023-04-21T01:16:55;95821.81;;;4.34;100.00
69411;BME280;56604;48.652;9.194;2023-04-21T01:19:21;95819.84;;;4.29;100.00
69411;BME280;56604;48.652;9.194;2023-04-21T01:21:47;95818.19;;;4.35;100.00
69411;BME280;56604;48.652;9.194;2023-04-21T01:24:13;95821.03;;;4.34;100.00
69411;BME280;56604;48.652;9.194;2023-04-21T01:26:38;95824.66;;;4.33;100.00
69411;BME280;56604;48.652;9.194;2023-04-21T01:29:04;95820.66;;;4.30;100.00
69411;BME280;56604;48.652;9.194;2023-04-21T01:31:29;95830.69;;;4.26;100.00
69411;BME280;56604;48.652;9.194;2023-04-21T01:33:54;95826.72;;;4.24;100.00
69411;BME280;56604;48.652;9.194;2023-04-21T01:36:20;95826.38;;;4.20;100.00
69411;BME280;56604;48.652;9.194;2023-04-21T01:38:45;95839.25;;;4.15;100.00
69411;BME280;56604;48.652;9.194;2023-04-21T01:41:10;95829.28;;;4.12;100.00
69411;BME280;56604;48.652;9.194;2023-04-21T01:43:36;95842.94;;;4.08;100.00
69411;BME280;56604;48.652;9.194;2023-04-21T01:46:03;95836.13;;;4.06;100.00
69411;BME280;56604;48.652;9.194;2023-04-21T01:48:29;95839.41;;;4.02;100.00
69411;BME280;56604;48.652;9.194;2023-04-21T01:50:54;95839.59;;;4.00;100.00
69411;BME280;56604;48.652;9.194;2023-04-21T01:53:19;95842.66;;;3.97;99.82
69411;BME280;56604;48.652;9.194;2023-04-21T01:55:45;95827.03;;;3.97;100.00
69411;BME280;56604;48.652;9.194;2023-04-21T01:58:10;95820.69;;;3.93;99.87
69411;BME280;56604;48.652;9.194;2023-04-21T02:00:35;95827.75;;;3.86;100.00
69411;BME280;56604;48.652;9.194;2023-04-21T02:03:01;95833.84;;;3.80;100.00
69411;BME280;56604;48.652;9.194;2023-04-21T02:05:26;95827.25;;;3.77;100.00
69411;BME280;56604;48.652;9.194;2023-04-21T02:07:51;95820.09;;;3.73;100.00
69411;BME280;56604;48.652;9.194;2023-04-21T02:10:17;95826.81;;;3.80;99.46
69411;BME280;56604;48.652;9.194;2023-04-21T02:12:42;95831.53;;;3.90;100.00
69411;BME280;56604;48.652;9.194;2023-04-21T02:15:07;95825.47;;;3.96;100.00
69411;BME280;56604;48.652;9.194;2023-04-21T02:17:33;95832.09;;;3.92;99.72
69411;BME280;56604;48.652;9.194;2023-04-21T02:19:58;95824.19;;;3.87;99.97
69411;BME280;56604;48.652;9.194;2023-04-21T02:22:23;95827.47;;;3.94;100.00
69411;BME280;56604;48.652;9.194;2023-04-21T02:24:49;95830.09;;;3.94;100.00
69411;BME280;56604;48.652;9.194;2023-04-21T02:27:15;95832.53;;;3.89;99.63
69411;BME280;56604;48.652;9.194;2023-04-21T02:29:40;95825.94;;;3.87;100.00
69411;BME280;56604;48.652;9.194;2023-04-21T02:32:05;95830.38;;;3.86;99.65
69411;BME280;56604;48.652;9.194;2023-04-21T02:34:31;95834.00;;;3.85;99.88
69411;BME280;56604;48.652;9.194;2023-04-21T02:36:57;95838.44;;;3.78;100.00
69411;BME280;56604;48.652;9.194;2023-04-21T02:39:24;95837.72;;;3.71;99.97
69411;BME280;56604;48.652;9.194;2023-04-21T02:41:49;95843.38;;;3.68;99.69
69411;BME280;56604;48.652;9.194;2023-04-21T02:44:14;95842.22;;;3.82;100.00
69411;BME280;56604;48.652;9.194;2023-04-21T02:46:40;95841.50;;;3.93;100.00
69411;BME280;56604;48.652;9.194;2023-04-21T02:49:05;95839.25;;;3.97;100.00
69411;BME280;56604;48.652;9.194;2023-04-21T02:51:31;95832.97;;;3.86;100.00
69411;BME280;56604;48.652;9.194;2023-04-21T02:53:56;95820.84;;;3.80;100.00
69411;BME280;56604;48.652;9.194;2023-04-21T02:56:21;95818.09;;;3.75;100.00
69411;BME280;56604;48.652;9.194;2023-04-21T02:58:47;95817.94;;;3.70;100.00
69411;BME280;56604;48.652;9.194;2023-04-21T03:01:12;95821.78;;;3.67;100.00
69411;BME280;56604;48.652;9.194;2023-04-21T03:03:37;95815.47;;;3.56;100.00
69411;BME280;56604;48.652;9.194;2023-04-21T03:06:04;95819.56;;;3.46;99.42
69411;BME280;56604;48.652;9.194;2023-04-21T03:08:31;95811.19;;;3.44;99.51
69411;BME280;56604;48.652;9.194;2023-04-21T03:10:56;95810.84;;;3.40;99.90
69411;BME280;56604;48.652;9.194;2023-04-21T03:13:22;95819.66;;;3.39;99.09
69411;BME280;56604;48.652;9.194;2023-04-21T03:15:48;95814.59;;;3.44;99.46
69411;BME280;56604;48.652;9.194;2023-04-21T03:18:13;95807.09;;;3.54;100.00
69411;BME280;56604;48.652;9.194;2023-04-21T03:20:39;95809.69;;;3.54;100.00
69411;BME280;56604;48.652;9.194;2023-04-21T03:23:04;95819.38;;;3.66;99.75
69411;BME280;56604;48.652;9.194;2023-04-21T03:25:30;95818.38;;;3.67;99.40
69411;BME280;56604;48.652;9.194;2023-04-21T03:27:55;95820.16;;;3.66;100.00
69411;BME280;56604;48.652;9.194;2023-04-21T03:30:23;95817.81;;;3.65;100.00
69411;BME280;56604;48.652;9.194;2023-04-21T03:32:52;95813.03;;;3.62;100.00
69411;BME280;56604;48.652;9.194;2023-04-21T03:35:19;95819.47;;;3.59;100.00
69411;BME280;56604;48.652;9.194;2023-04-21T03:37:44;95812.88;;;3.56;100.00
69411;BME280;56604;48.652;9.194;2023-04-21T03:40:10;95809.69;;;3.54;100.00
69411;BME280;56604;48.652;9.194;2023-04-21T03:42:36;95811.88;;;3.57;99.83
69411;BME280;56604;48.652;9.194;2023-04-21T03:45:02;95818.25;;;3.62;99.90
69411;BME280;56604;48.652;9.194;2023-04-21T03:47:27;95817.09;;;3.76;100.00
69411;BME280;56604;48.652;9.194;2023-04-21T03:49:53;95824.56;;;3.84;100.00
69411;BME280;56604;48.652;9.194;2023-04-21T03:52:18;95824.38;;;3.86;100.00
69411;BME280;56604;48.652;9.194;2023-04-21T03:54:44;95824.03;;;3.82;100.00
69411;BME280;56604;48.652;9.194;2023-04-21T03:57:09;95824.03;;;3.82;100.00
69411;BME280;56604;48.652;9.194;2023-04-21T03:59:34;95815.00;;;3.85;100.00
69411;BME280;56604;48.652;9.194;2023-04-21T04:02:00;95816.78;;;3.84;100.00
69411;BME280;56604;48.652;9.194;2023-04-21T04:04:25;95815.78;;;3.85;100.00
69411;BME280;56604;48.652;9.194;2023-04-21T04:06:50;95826.97;;;3.86;100.00
69411;BME280;56604;48.652;9.194;2023-04-21T04:09:16;95823.59;;;3.85;100.00
69411;BME280;56604;48.652;9.194;2023-04-21T04:11:41;95829.22;;;3.82;100.00
69411;BME280;56604;48.652;9.194;2023-04-21T04:14:06;95829.06;;;3.77;100.00
69411;BME280;56604;48.652;9.194;2023-04-21T04:16:33;95825.53;;;3.71;100.00
69411;BME280;56604;48.652;9.194;2023-04-21T04:18:58;95831.34;;;3.67;100.00
69411;BME280;56604;48.652;9.194;2023-04-21T04:21:24;95825.97;;;3.68;100.00
69411;BME280;56604;48.652;9.194;2023-04-21T04:23:49;95820.53;;;3.70;100.00
69411;BME280;56604;48.652;9.194;2023-04-21T04:26:18;95817.56;;;3.66;100.00
69411;BME280;56604;48.652;9.194;2023-04-21T04:28:43;95823.00;;;3.65;100.00
69411;BME280;56604;48.652;9.194;2023-04-21T04:31:09;95827.25;;;3.59;100.00
69411;BME280;56604;48.652;9.194;2023-04-21T04:33:34;95823.13;;;3.51;100.00
69411;BME280;56604;48.652;9.194;2023-04-21T04:36:00;95823.72;;;3.53;100.00
69411;BME280;56604;48.652;9.194;2023-04-21T04:38:25;95822.34;;;3.51;100.00
69411;BME280;56604;48.652;9.194;2023-04-21T04:40:55;95824.28;;;3.55;100.00
69411;BME280;56604;48.652;9.194;2023-04-21T04:43:26;95823.84;;;3.58;100.00
69411;BME280;56604;48.652;9.194;2023-04-21T04:45:51;95822.25;;;3.57;100.00
69411;BME280;56604;48.652;9.194;2023-04-21T04:48:17;95823.84;;;3.58;100.00
69411;BME280;56604;48.652;9.194;2023-04-21T04:50:42;95821.03;;;3.60;100.00
69411;BME280;56604;48.652;9.194;2023-04-21T04:53:08;95810.44;;;3.62;100.00
69411;BME280;56604;48.652;9.194;2023-04-21T04:55:33;95820.47;;;3.76;100.00
69411;BME280;56604;48.652;9.194;2023-04-21T04:57:59;95829.72;;;3.91;100.00
69411;BME280;56604;48.652;9.194;2023-04-21T05:00:26;95840.78;;;4.04;100.00
69411;BME280;56604;48.652;9.194;2023-04-21T05:02:52;95841.59;;;4.35;100.00
69411;BME280;56604;48.652;9.194;2023-04-21T05:05:18;95845.38;;;4.39;99.69
69411;BME280;56604;48.652;9.194;2023-04-21T05:07:44;95843.75;;;4.38;99.47
69411;BME280;56604;48.652;9.194;2023-04-21T05:10:09;95848.84;;;4.15;99.25
69411;BME280;56604;48.652;9.194;2023-04-21T05:12:35;95848.41;;;4.18;99.13
69411;BME280;56604;48.652;9.194;2023-04-21T05:15:00;95845.53;;;4.26;98.44
69411;BME280;56604;48.652;9.194;2023-04-21T05:17:26;95849.84;;;4.32;97.45
69411;BME280;56604;48.652;9.194;2023-04-21T05:19:52;95854.91;;;4.45;97.56
69411;BME280;56604;48.652;9.194;2023-04-21T05:22:17;95853.75;;;4.41;96.81
69411;BME280;56604;48.652;9.194;2023-04-21T05:24:43;95859.03;;;4.35;97.17
69411;BME280;56604;48.652;9.194;2023-04-21T05:27:08;95857.94;;;4.24;97.33
69411;BME280;56604;48.652;9.194;2023-04-21T05:29:34;95878.56;;;4.07;97.92
69411;BME280;56604;48.652;9.194;2023-04-21T05:31:59;95883.47;;;3.97;99.32
69411;BME280;56604;48.652;9.194;2023-04-21T05:34:25;95876.03;;;4.19;98.86
69411;BME280;56604;48.652;9.194;2023-04-21T05:36:50;95861.31;;;4.13;98.22
69411;BME280;56604;48.652;9.194;2023-04-21T05:39:16;95864.19;;;4.04;98.35
69411;BME280;56604;48.652;9.194;2023-04-21T05:41:42;95863.88;;;4.31;97.25
69411;BME280;56604;48.652;9.194;2023-04-21T05:44:07;95860.09;;;4.45;96.76
69411;BME280;56604;48.652;9.194;2023-04-21T05:46:32;95861.06;;;4.63;96.41
69411;BME280;56604;48.652;9.194;2023-04-21T05:48:59;95853.69;;;4.78;96.69
69411;BME280;56604;48.652;9.194;2023-04-21T05:51:26;95846.59;;;4.97;95.81
69411;BME280;56604;48.652;9.194;2023-04-21T05:53:51;95838.13;;;5.25;94.89
69411;BME280;56604;48.652;9.194;2023-04-21T05:56:17;95831.25;;;5.43;94.11
69411;BME280;56604;48.652;9.194;2023-04-21T05:58:43;95819.53;;;5.80;93.38
69411;BME280;56604;48.652;9.194;2023-04-21T06:01:08;95833.94;;;5.83;92.07
69411;BME280;56604;48.652;9.194;2023-04-21T06:03:34;95832.03;;;6.02;92.09
69411;BME280;56604;48.652;9.194;2023-04-21T06:06:00;95822.84;;;6.40;91.60
69411;BME280;56604;48.652;9.194;2023-04-21T06:08:26;95812.88;;;6.65;90.09
69411;BME280;56604;48.652;9.194;2023-04-21T06:10:51;95819.75;;;6.55;89.52
69411;BME280;56604;48.652;9.194;2023-04-21T06:13:17;95836.41;;;6.82;88.09
69411;BME280;56604;48.652;9.194;2023-04-21T06:15:42;95836.63;;;7.09;87.50
69411;BME280;56604;48.652;9.194;2023-04-21T06:18:08;95829.50;;;7.38;86.14
69411;BME280;56604;48.652;9.194;2023-04-21T06:20:33;95824.03;;;7.79;84.28
69411;BME280;56604;48.652;9.194;2023-04-21T06:22:58;95827.19;;;7.98;83.18
69411;BME280;56604;48.652;9.194;2023-04-21T06:25:24;95818.75;;;8.62;78.16
69411;BME280;56604;48.652;9.194;2023-04-21T06:27:49;95819.16;;;8.48;79.22
69411;BME280;56604;48.652;9.194;2023-04-21T06:30:14;95838.72;;;8.02;80.85
69411;BME280;56604;48.652;9.194;2023-04-21T06:32:40;95835.25;;;7.96;80.38
69411;BME280;56604;48.652;9.194;2023-04-21T06:35:05;95835.00;;;7.59;83.01
69411;BME280;56604;48.652;9.194;2023-04-21T06:37:31;95827.13;;;7.03;83.46
69411;BME280;56604;48.652;9.194;2023-04-21T06:39:56;95824.16;;;7.16;84.29
69411;BME280;56604;48.652;9.194;2023-04-21T06:42:21;95824.44;;;7.32;84.32
69411;BME280;56604;48.652;9.194;2023-04-21T06:44:47;95830.75;;;7.02;83.84
69411;BME280;56604;48.652;9.194;2023-04-21T06:47:12;95829.31;;;7.11;84.65
69411;BME280;56604;48.652;9.194;2023-04-21T06:49:37;95831.88;;;7.40;82.90
69411;BME280;56604;48.652;9.194;2023-04-21T06:52:03;95828.69;;;7.04;84.59
69411;BME280;56604;48.652;9.194;2023-04-21T06:54:29;95832.00;;;7.16;84.63
69411;BME280;56604;48.652;9.194;2023-04-21T06:56:54;95836.69;;;7.31;84.08
69411;BME280;56604;48.652;9.194;2023-04-21T06:59:21;95843.47;;;7.83;81.93
69411;BME280;56604;48.652;9.194;2023-04-21T07:01:47;95826.94;;;8.65;77.88
69411;BME280;56604;48.652;9.194;2023-04-21T07:04:16;95835.72;;;8.81;76.87
69411;BME280;56604;48.652;9.194;2023-04-21T07:06:42;95827.75;;;9.25;75.38
69411;BME280;56604;48.652;9.194;2023-04-21T07:09:07;95835.19;;;9.06;74.31
69411;BME280;56604;48.652;9.194;2023-04-21T07:11:33;95820.94;;;10.14;71.68
69411;BME280;56604;48.652;9.194;2023-04-21T07:13:58;95824.75;;;10.33;68.33
69411;BME280;56604;48.652;9.194;2023-04-21T07:16:26;95811.38;;;10.50;68.29
69411;BME280;56604;48.652;9.194;2023-04-21T07:18:51;95817.50;;;9.61;72.49
69411;BME280;56604;48.652;9.194;2023-04-21T07:21:16;95815.03;;;10.44;70.81
69411;BME280;56604;48.652;9.194;2023-04-21T07:23:42;95813.00;;;10.67;68.96
69411;BME280;56604;48.652;9.194;2023-04-21T07:26:07;95819.06;;;10.67;69.38
69411;BME280;56604;48.652;9.194;2023-04-21T07:28:32;95819.59;;;10.74;69.83
69411;BME280;56604;48.652;9.194;2023-04-21T07:30:58;95820.94;;;11.02;68.63
69411;BME280;56604;48.652;9.194;2023-04-21T07:33:23;95822.78;;;11.38;67.33
69411;BME280;56604;48.652;9.194;2023-04-21T07:35:48;95819.63;;;10.85;66.98
69411;BME280;56604;48.652;9.194;2023-04-21T07:38:14;95823.31;;;11.35;67.68
69411;BME280;56604;48.652;9.194;2023-04-21T07:40:39;95831.75;;;11.16;68.84
69411;BME280;56604;48.652;9.194;2023-04-21T07:43:04;95831.22;;;11.30;67.47
69411;BME280;56604;48.652;9.194;2023-04-21T07:45:30;95816.81;;;12.38;63.82
69411;BME280;56604;48.652;9.194;2023-04-21T07:47:55;95823.84;;;12.58;63.46
69411;BME280;56604;48.652;9.194;2023-04-21T07:50:20;95816.44;;;12.60;61.57
69411;BME280;56604;48.652;9.194;2023-04-21T07:52:46;95819.22;;;13.58;62.65
69411;BME280;56604;48.652;9.194;2023-04-21T07:55:12;95822.38;;;13.25;60.35
69411;BME280;56604;48.652;9.194;2023-04-21T07:57:37;95809.16;;;12.86;63.02
69411;BME280;56604;48.652;9.194;2023-04-21T08:00:05;95813.78;;;13.44;59.55
69411;BME280;56604;48.652;9.194;2023-04-21T08:02:30;95808.13;;;14.95;54.98
69411;BME280;56604;48.652;9.194;2023-04-21T08:04:55;95803.97;;;15.40;55.53
69411;BME280;56604;48.652;9.194;2023-04-21T08:07:21;95812.66;;;15.08;55.34
69411;BME280;56604;48.652;9.194;2023-04-21T08:09:46;95816.22;;;14.17;56.91
69411;BME280;56604;48.652;9.194;2023-04-21T08:12:11;95821.78;;;13.63;58.50
69411;BME280;56604;48.652;9.194;2023-04-21T08:14:37;95809.41;;;14.78;55.17
69411;BME280;56604;48.652;9.194;2023-04-21T08:17:02;95822.81;;;12.98;58.84
69411;BME280;56604;48.652;9.194;2023-04-21T08:19:27;95818.81;;;13.40;60.87
69411;BME280;56604;48.652;9.194;2023-04-21T08:21:53;95804.84;;;14.17;61.02
69411;BME280;56604;48.652;9.194;2023-04-21T08:24:18;95810.47;;;14.58;59.22
69411;BME280;56604;48.652;9.194;2023-04-21T08:26:43;95806.13;;;15.05;58.25
69411;BME280;56604;48.652;9.194;2023-04-21T08:29:09;95825.56;;;13.52;58.54
69411;BME280;56604;48.652;9.194;2023-04-21T08:31:35;95813.56;;;14.42;57.70
69411;BME280;56604;48.652;9.194;2023-04-21T08:34:00;95812.25;;;14.39;57.58
69411;BME280;56604;48.652;9.194;2023-04-21T08:36:26;95822.81;;;13.67;59.20
69411;BME280;56604;48.652;9.194;2023-04-21T08:38:51;95823.81;;;13.02;62.03
69411;BME280;56604;48.652;9.194;2023-04-21T08:41:16;95821.50;;;14.42;61.53
69411;BME280;56604;48.652;9.194;2023-04-21T08:43:43;95817.34;;;14.35;56.31
69411;BME280;56604;48.652;9.194;2023-04-21T08:46:08;95816.47;;;13.39;60.74
69411;BME280;56604;48.652;9.194;2023-04-21T08:48:37;95810.13;;;13.69;61.67
69411;BME280;56604;48.652;9.194;2023-04-21T08:51:06;95812.84;;;12.85;63.43
69411;BME280;56604;48.652;9.194;2023-04-21T08:53:36;95814.97;;;13.57;61.83
69411;BME280;56604;48.652;9.194;2023-04-21T08:56:02;95814.75;;;14.30;59.75
69411;BME280;56604;48.652;9.194;2023-04-21T08:58:27;95802.81;;;13.85;61.65
69411;BME280;56604;48.652;9.194;2023-04-21T09:00:52;95787.72;;;14.33;59.03
69411;BME280;56604;48.652;9.194;2023-04-21T09:03:22;95796.81;;;14.03;62.41
69411;BME280;56604;48.652;9.194;2023-04-21T09:05:57;95799.69;;;14.07;58.08
69411;BME280;56604;48.652;9.194;2023-04-21T09:08:22;95786.31;;;14.84;56.98
69411;BME280;56604;48.652;9.194;2023-04-21T09:10:50;95791.75;;;14.50;56.55
69411;BME280;56604;48.652;9.194;2023-04-21T09:13:19;95793.03;;;14.33;57.16
69411;BME280;56604;48.652;9.194;2023-04-21T09:15:47;95791.03;;;15.52;55.70
69411;BME280;56604;48.652;9.194;2023-04-21T09:18:21;95793.69;;;15.85;52.70
69411;BME280;56604;48.652;9.194;2023-04-21T09:20:49;95789.09;;;16.69;52.77
69411;BME280;56604;48.652;9.194;2023-04-21T09:23:14;95800.38;;;15.83;54.16
69411;BME280;56604;48.652;9.194;2023-04-21T09:25:41;95794.22;;;16.65;50.72
69411;BME280;56604;48.652;9.194;2023-04-21T09:28:08;95789.91;;;15.07;53.32
69411;BME280;56604;48.652;9.194;2023-04-21T09:30:35;95788.09;;;16.01;51.33
69411;BME280;56604;48.652;9.194;2023-04-21T09:33:00;95784.84;;;16.45;54.83
69411;BME280;56604;48.652;9.194;2023-04-21T09:35:31;95791.03;;;15.85;53.77
69411;BME280;56604;48.652;9.194;2023-04-21T09:37:57;95785.63;;;16.32;55.82
69411;BME280;56604;48.652;9.194;2023-04-21T09:40:22;95779.53;;;16.31;54.92
69411;BME280;56604;48.652;9.194;2023-04-21T09:42:48;95786.09;;;15.79;56.17
69411;BME280;56604;48.652;9.194;2023-04-21T09:45:14;95787.69;;;16.35;53.21
69411;BME280;56604;48.652;9.194;2023-04-21T09:47:41;95779.91;;;16.52;52.29
69411;BME280;56604;48.652;9.194;2023-04-21T09:50:08;95782.44;;;15.61;55.76
69411;BME280;56604;48.652;9.194;2023-04-21T09:52:35;95782.88;;;15.82;54.62
69411;BME280;56604;48.652;9.194;2023-04-21T09:55:03;95785.16;;;14.28;58.24
69411;BME280;56604;48.652;9.194;2023-04-21T09:57:34;95769.38;;;15.64;56.59
69411;BME280;56604;48.652;9.194;2023-04-21T10:00:04;95772.94;;;14.75;58.92
69411;BME280;56604;48.652;9.194;2023-04-21T10:02:34;95770.97;;;14.43;62.07
69411;BME280;56604;48.652;9.194;2023-04-21T10:05:00;95777.84;;;14.20;61.47
69411;BME280;56604;48.652;9.194;2023-04-21T10:07:25;95761.75;;;14.59;59.99
69411;BME280;56604;48.652;9.194;2023-04-21T10:09:53;95780.47;;;13.48;62.99
69411;BME280;56604;48.652;9.194;2023-04-21T10:12:20;95766.84;;;14.13;61.62
69411;BME280;56604;48.652;9.194;2023-04-21T10:14:49;95761.63;;;14.89;60.00
69411;BME280;56604;48.652;9.194;2023-04-21T10:17:15;95764.78;;;14.72;59.63
69411;BME280;56604;48.652;9.194;2023-04-21T10:19:49;95759.72;;;15.41;62.31
69411;BME280;56604;48.652;9.194;2023-04-21T10:22:25;95760.00;;;15.25;59.82
69411;BME280;56604;48.652;9.194;2023-04-21T10:24:54;95754.34;;;15.46;59.53
69411;BME280;56604;48.652;9.194;2023-04-21T10:27:39;95763.31;;;15.31;62.21
69411;BME280;56604;48.652;9.194;2023-04-21T10:30:21;95756.47;;;14.78;61.61
69411;BME280;56604;48.652;9.194;2023-04-21T10:32:48;95762.72;;;15.20;62.58
69411;BME280;56604;48.652;9.194;2023-04-21T10:35:58;95764.44;;;14.35;61.91
69411;BME280;56604;48.652;9.194;2023-04-21T10:38:42;95767.22;;;14.25;63.46
69411;BME280;56604;48.652;9.194;2023-04-21T10:41:27;95768.19;;;14.10;63.49
69411;BME280;56604;48.652;9.194;2023-04-21T10:43:52;95762.28;;;15.13;61.80
69411;BME280;56604;48.652;9.194;2023-04-21T10:46:35;95761.56;;;15.26;61.30
69411;BME280;56604;48.652;9.194;2023-04-21T10:49:27;95757.34;;;14.31;61.71
69411;BME280;56604;48.652;9.194;2023-04-21T10:54:25;95756.88;;;14.05;63.28
69411;BME280;56604;48.652;9.194;2023-04-21T10:56:52;95762.03;;;13.72;64.94
69411;BME280;56604;48.652;9.194;2023-04-21T10:59:18;95754.81;;;14.02;65.84
69411;BME280;56604;48.652;9.194;2023-04-21T11:01:43;95758.13;;;13.64;65.39
69411;BME280;56604;48.652;9.194;2023-04-21T11:04:20;95737.50;;;14.14;66.52
69411;BME280;56604;48.652;9.194;2023-04-21T11:07:09;95740.00;;;14.44;64.65
69411;BME280;56604;48.652;9.194;2023-04-21T11:09:35;95743.03;;;14.56;63.78
69411;BME280;56604;48.652;9.194;2023-04-21T11:12:03;95749.75;;;13.81;65.10
69411;BME280;56604;48.652;9.194;2023-04-21T11:14:31;95733.97;;;14.19;66.54
69411;BME280;56604;48.652;9.194;2023-04-21T11:16:57;95728.13;;;14.22;65.93
69411;BME280;56604;48.652;9.194;2023-04-21T11:19:22;95724.31;;;14.52;65.97
69411;BME280;56604;48.652;9.194;2023-04-21T11:21:52;95729.03;;;14.74;64.86
69411;BME280;56604;48.652;9.194;2023-04-21T11:24:21;95729.50;;;14.76;64.88
69411;BME280;56604;48.652;9.194;2023-04-21T11:26:46;95736.41;;;15.10;67.86
69411;BME280;56604;48.652;9.194;2023-04-21T11:29:12;95731.44;;;14.90;66.47
69411;BME280;56604;48.652;9.194;2023-04-21T11:31:41;95724.00;;;14.54;64.87
69411;BME280;56604;48.652;9.194;2023-04-21T11:34:07;95725.22;;;14.61;66.09
69411;BME280;56604;48.652;9.194;2023-04-21T11:36:33;95727.03;;;14.66;66.77
69411;BME280;56604;48.652;9.194;2023-04-21T11:39:03;95726.22;;;14.84;66.82
69411;BME280;56604;48.652;9.194;2023-04-21T11:41:32;95718.78;;;14.68;65.82
69411;BME280;56604;48.652;9.194;2023-04-21T11:43:57;95714.72;;;14.75;64.17
69411;BME280;56604;48.652;9.194;2023-04-21T11:46:25;95716.84;;;14.73;66.50
69411;BME280;56604;48.652;9.194;2023-04-21T11:49:01;95716.91;;;14.87;69.13
69411;BME280;56604;48.652;9.194;2023-04-21T11:51:41;95718.44;;;14.74;66.17
69411;BME280;56604;48.652;9.194;2023-04-21T11:54:08;95709.63;;;14.79;66.56
69411;BME280;56604;48.652;9.194;2023-04-21T11:56:42;95713.69;;;14.71;64.36
69411;BME280;56604;48.652;9.194;2023-04-21T12:01:33;95711.81;;;14.91;67.81
69411;BME280;56604;48.652;9.194;2023-04-21T12:03:58;95710.25;;;14.90;65.98
69411;BME280;56604;48.652;9.194;2023-04-21T12:06:25;95705.72;;;15.09;66.61
69411;BME280;56604;48.652;9.194;2023-04-21T12:09:00;95706.75;;;15.08;63.51
69411;BME280;56604;48.652;9.194;2023-04-21T12:11:30;95704.38;;;15.25;65.06
69411;BME280;56604;48.652;9.194;2023-04-21T12:13:56;95697.25;;;15.07;64.92
69411;BME280;56604;48.652;9.194;2023-04-21T12:16:24;95699.97;;;15.35;64.48
69411;BME280;56604;48.652;9.194;2023-04-21T12:18:51;95702.28;;;15.22;64.44
69411;BME280;56604;48.652;9.194;2023-04-21T12:21:17;95698.00;;;15.26;63.96
69411;BME280;56604;48.652;9.194;2023-04-21T12:23:42;95687.41;;;15.26;63.57
69411;BME280;56604;48.652;9.194;2023-04-21T12:26:09;95689.59;;;15.66;63.13
69411;BME280;56604;48.652;9.194;2023-04-21T12:28:35;95683.28;;;15.62;65.00
69411;BME280;56604;48.652;9.194;2023-04-21T12:31:00;95677.44;;;15.92;64.25
69411;BME280;56604;48.652;9.194;2023-04-21T12:33:25;95676.63;;;16.06;66.00
69411;BME280;56604;48.652;9.194;2023-04-21T12:35:51;95669.75;;;16.05;64.08
69411;BME280;56604;48.652;9.194;2023-04-21T12:38:16;95667.59;;;16.07;64.82
69411;BME280;56604;48.652;9.194;2023-04-21T12:40:41;95666.03;;;15.92;61.95
69411;BME280;56604;48.652;9.194;2023-04-21T12:43:07;95657.69;;;15.85;60.57
69411;BME280;56604;48.652;9.194;2023-04-21T12:45:32;95657.56;;;16.17;64.72
69411;BME280;56604;48.652;9.194;2023-04-21T12:47:58;95658.53;;;16.08;59.33
69411;BME280;56604;48.652;9.194;2023-04-21T12:50:23;95667.59;;;15.93;62.15
69411;BME280;56604;48.652;9.194;2023-04-21T12:52:49;95659.97;;;15.78;61.13
69411;BME280;56604;48.652;9.194;2023-04-21T12:55:16;95668.69;;;16.06;60.87
69411;BME280;56604;48.652;9.194;2023-04-21T12:57:42;95670.44;;;15.96;59.92
69411;BME280;56604;48.652;9.194;2023-04-21T13:00:08;95665.69;;;15.71;59.83
69411;BME280;56604;48.652;9.194;2023-04-21T13:02:36;95670.56;;;16.05;59.80
69411;BME280;56604;48.652;9.194;2023-04-21T13:05:02;95664.88;;;15.70;58.01